Time;durP1;ratioP1;P1;durP2;ratioP2;P2;SDS_P1;SDS_P2;PMS_P1;PMS_P2;Temp;Humidity;BMP_temperature;BMP_pressure;BME280_temperature;BME280_humidity;BME280_pressure;Samples;Min_cycle;Max_cycle;Signal;HPM_P1;HPM_P2
2020/09/23 00:00:13;;;;;;;19.4;17.35;;;;;;;15.9;100;94493.28;;;;
2020/09/23 00:01:13;;;;;;;19.4;17.35;;;;;;;15.9;100;94493.28;;;;
2020/09/23 00:02:14;;;;;;;19.4;17.35;;;;;;;15.9;100;94493.28;;;;
2020/09/23 00:03:15;;;;;;;19.4;17.35;;;;;;;15.9;100;94493.28;;;;
2020/09/23 00:04:15;;;;;;;19.4;17.35;;;;;;;15.9;100;94493.28;;;;
2020/09/23 00:05:16;;;;;;;19.4;17.35;;;;;;;15.9;100;94493.28;;;;
2020/09/23 00:06:16;;;;;;;21.7;17.35;;;;;;;15.9;100;94487.43;;;;
2020/09/23 00:07:17;;;;;;;21.7;17.35;;;;;;;15.9;100;94487.43;;;;
2020/09/23 00:08:17;;;;;;;21.7;17.35;;;;;;;15.9;100;94487.43;;;;
2020/09/23 00:09:18;;;;;;;21.7;17.35;;;;;;;15.9;100;94487.43;;;;
2020/09/23 00:10:18;;;;;;;21.7;17.35;;;;;;;15.9;100;94487.43;;;;
2020/09/23 00:11:19;;;;;;;21.7;17.35;;;;;;;15.9;100;94487.43;;;;
2020/09/23 00:12:19;;;;;;;21.7;17.35;;;;;;;15.9;100;94487.43;;;;
2020/09/23 00:13:20;;;;;;;21.7;17.35;;;;;;;15.9;100;94487.43;;;;
2020/09/23 00:14:20;;;;;;;21.7;17.35;;;;;;;15.9;100;94487.43;;;;
2020/09/23 00:15:21;;;;;;;21.7;17.35;;;;;;;15.9;100;94487.43;;;;
2020/09/23 00:16:22;;;;;;;17.4;15.55;;;;;;;15.94;100;94478.38;;;;
2020/09/23 00:17:22;;;;;;;17.4;15.55;;;;;;;15.94;100;94478.38;;;;
2020/09/23 00:18:23;;;;;;;17.4;15.55;;;;;;;15.94;100;94478.38;;;;
2020/09/23 00:19:23;;;;;;;17.4;15.55;;;;;;;15.94;100;94478.38;;;;
2020/09/23 00:20:24;;;;;;;17.4;15.55;;;;;;;15.94;100;94478.38;;;;
2020/09/23 00:21:24;;;;;;;17.4;15.55;;;;;;;15.94;100;94478.38;;;;
2020/09/23 00:22:25;;;;;;;17.4;15.55;;;;;;;15.94;100;94478.38;;;;
2020/09/23 00:23:26;;;;;;;17.4;15.55;;;;;;;15.94;100;94478.38;;;;
2020/09/23 00:24:26;;;;;;;17.4;15.55;;;;;;;15.94;100;94478.38;;;;
2020/09/23 00:25:27;;;;;;;17.4;15.55;;;;;;;15.94;100;94478.38;;;;
2020/09/23 00:26:27;;;;;;;17.4;15.55;;;;;;;15.94;100;94478.38;;;;
2020/09/23 00:27:28;;;;;;;15.9;14.2;;;;;;;15.89;100;94472.17;;;;
2020/09/23 00:28:28;;;;;;;15.9;14.2;;;;;;;15.89;100;94472.17;;;;
2020/09/23 00:29:29;;;;;;;15.9;14.2;;;;;;;15.89;100;94472.17;;;;
2020/09/23 00:30:29;;;;;;;15.9;14.2;;;;;;;15.89;100;94472.17;;;;
2020/09/23 00:31:30;;;;;;;15.9;14.2;;;;;;;15.89;100;94472.17;;;;
2020/09/23 00:32:30;;;;;;;15.9;14.2;;;;;;;15.89;100;94472.17;;;;
2020/09/23 00:33:31;;;;;;;15.9;14.2;;;;;;;15.89;100;94472.17;;;;
2020/09/23 00:34:32;;;;;;;15.9;14.2;;;;;;;15.89;100;94472.17;;;;
2020/09/23 00:35:32;;;;;;;15.9;14.2;;;;;;;15.89;100;94472.17;;;;
2020/09/23 00:36:33;;;;;;;15.9;14.2;;;;;;;15.89;100;94472.17;;;;
2020/09/23 00:37:33;;;;;;;14.4;12.9;;;;;;;15.85;100;94473.3;;;;
2020/09/23 00:38:34;;;;;;;14.4;12.9;;;;;;;15.85;100;94473.3;;;;
2020/09/23 00:39:34;;;;;;;14.4;12.9;;;;;;;15.85;100;94473.3;;;;
2020/09/23 00:40:35;;;;;;;14.4;12.9;;;;;;;15.85;100;94473.3;;;;
2020/09/23 00:41:35;;;;;;;14.4;12.9;;;;;;;15.85;100;94473.3;;;;
2020/09/23 00:42:36;;;;;;;14.4;12.9;;;;;;;15.85;100;94473.3;;;;
2020/09/23 00:43:36;;;;;;;14.4;12.9;;;;;;;15.85;100;94473.3;;;;
2020/09/23 00:44:37;;;;;;;14.4;12.9;;;;;;;15.85;100;94473.3;;;;
2020/09/23 00:45:37;;;;;;;14.4;12.9;;;;;;;15.85;100;94473.3;;;;
2020/09/23 00:46:38;;;;;;;14.4;12.9;;;;;;;15.85;100;94473.3;;;;
2020/09/23 00:47:38;;;;;;;14.4;12.9;;;;;;;15.85;100;94473.3;;;;
2020/09/23 00:48:39;;;;;;;16.05;13.7;;;;;;;15.74;100;94469.62;;;;
2020/09/23 00:49:39;;;;;;;16.05;13.7;;;;;;;15.74;100;94469.62;;;;
2020/09/23 00:50:40;;;;;;;16.05;13.7;;;;;;;15.74;100;94469.62;;;;
2020/09/23 00:51:40;;;;;;;16.05;13.7;;;;;;;15.74;100;94469.62;;;;
2020/09/23 00:52:41;;;;;;;16.05;13.7;;;;;;;15.74;100;94469.62;;;;
2020/09/23 00:53:42;;;;;;;16.05;13.7;;;;;;;15.74;100;94469.62;;;;
2020/09/23 00:54:42;;;;;;;16.05;13.7;;;;;;;15.74;100;94469.62;;;;
2020/09/23 00:55:43;;;;;;;16.05;13.7;;;;;;;15.74;100;94469.62;;;;
2020/09/23 00:56:43;;;;;;;16.05;13.7;;;;;;;15.74;100;94469.62;;;;
2020/09/23 00:57:43;;;;;;;16.05;13.7;;;;;;;15.74;100;94469.62;;;;
2020/09/23 00:58:44;;;;;;;16.05;13.7;;;;;;;15.74;100;94469.62;;;;
2020/09/23 00:59:45;;;;;;;14.55;13.05;;;;;;;15.66;100;94452.42;;;;
2020/09/23 01:00:45;;;;;;;14.55;13.05;;;;;;;15.66;100;94452.42;;;;
2020/09/23 01:01:46;;;;;;;14.55;13.05;;;;;;;15.66;100;94452.42;;;;
2020/09/23 01:02:48;;;;;;;14.55;13.05;;;;;;;15.66;100;94452.42;;;;
2020/09/23 01:03:48;;;;;;;14.55;13.05;;;;;;;15.66;100;94452.42;;;;
2020/09/23 01:04:49;;;;;;;14.55;13.05;;;;;;;15.66;100;94452.42;;;;
2020/09/23 01:05:49;;;;;;;14.55;13.05;;;;;;;15.66;100;94452.42;;;;
2020/09/23 01:06:50;;;;;;;14.55;13.05;;;;;;;15.66;100;94452.42;;;;
2020/09/23 01:07:51;;;;;;;14.55;13.05;;;;;;;15.66;100;94452.42;;;;
2020/09/23 01:08:51;;;;;;;14.55;13.05;;;;;;;15.66;100;94452.42;;;;
2020/09/23 01:09:52;;;;;;;14.65;13.2;;;;;;;15.55;100;94445.45;;;;
2020/09/23 01:10:57;;;;;;;14.65;13.2;;;;;;;15.55;100;94445.45;;;;
2020/09/23 01:11:58;;;;;;;14.65;13.2;;;;;;;15.55;100;94445.45;;;;
2020/09/23 01:12:58;;;;;;;14.65;13.2;;;;;;;15.55;100;94445.45;;;;
2020/09/23 01:13:59;;;;;;;14.65;13.2;;;;;;;15.55;100;94445.45;;;;
2020/09/23 01:14:59;;;;;;;14.65;13.2;;;;;;;15.55;100;94445.45;;;;
2020/09/23 01:16:00;;;;;;;14.65;13.2;;;;;;;15.55;100;94445.45;;;;
2020/09/23 01:17:00;;;;;;;14.65;13.2;;;;;;;15.55;100;94445.45;;;;
2020/09/23 01:18:01;;;;;;;14.65;13.2;;;;;;;15.55;100;94445.45;;;;
2020/09/23 01:19:01;;;;;;;14.65;13.2;;;;;;;15.55;100;94445.45;;;;
2020/09/23 01:20:02;;;;;;;14.65;13.2;;;;;;;15.55;100;94445.45;;;;
2020/09/23 01:21:02;;;;;;;17.2;15.35;;;;;;;15.5;100;94437.34;;;;
2020/09/23 01:22:03;;;;;;;17.2;15.35;;;;;;;15.5;100;94437.34;;;;
2020/09/23 01:23:03;;;;;;;17.2;15.35;;;;;;;15.5;100;94437.34;;;;
2020/09/23 01:24:04;;;;;;;17.2;15.35;;;;;;;15.5;100;94437.34;;;;
2020/09/23 01:25:05;;;;;;;17.2;15.35;;;;;;;15.5;100;94437.34;;;;
2020/09/23 01:26:05;;;;;;;17.2;15.35;;;;;;;15.5;100;94437.34;;;;
2020/09/23 01:27:06;;;;;;;17.2;15.35;;;;;;;15.5;100;94437.34;;;;
2020/09/23 01:28:06;;;;;;;17.2;15.35;;;;;;;15.5;100;94437.34;;;;
2020/09/23 01:29:07;;;;;;;17.2;15.35;;;;;;;15.5;100;94437.34;;;;
2020/09/23 01:30:08;;;;;;;17.2;15.35;;;;;;;15.5;100;94437.34;;;;
2020/09/23 01:31:09;;;;;;;16.15;14.5;;;;;;;15.37;100;94428.58;;;;
2020/09/23 01:32:09;;;;;;;16.15;14.5;;;;;;;15.37;100;94428.58;;;;
2020/09/23 01:33:10;;;;;;;16.15;14.5;;;;;;;15.37;100;94428.58;;;;
2020/09/23 01:34:10;;;;;;;16.15;14.5;;;;;;;15.37;100;94428.58;;;;
2020/09/23 01:35:11;;;;;;;16.15;14.5;;;;;;;15.37;100;94428.58;;;;
2020/09/23 01:36:11;;;;;;;16.15;14.5;;;;;;;15.37;100;94428.58;;;;
2020/09/23 01:37:12;;;;;;;16.15;14.5;;;;;;;15.37;100;94428.58;;;;
2020/09/23 01:38:12;;;;;;;16.15;14.5;;;;;;;15.37;100;94428.58;;;;
2020/09/23 01:39:13;;;;;;;16.15;14.5;;;;;;;15.37;100;94428.58;;;;
2020/09/23 01:40:13;;;;;;;16.15;14.5;;;;;;;15.37;100;94428.58;;;;
2020/09/23 01:41:14;;;;;;;16.15;14.5;;;;;;;15.37;100;94428.58;;;;
2020/09/23 01:42:15;;;;;;;15.7;14.05;;;;;;;15.27;100;94437.25;;;;
2020/09/23 01:43:16;;;;;;;15.7;14.05;;;;;;;15.27;100;94437.25;;;;
2020/09/23 01:44:16;;;;;;;15.7;14.05;;;;;;;15.27;100;94437.25;;;;
2020/09/23 01:45:17;;;;;;;15.7;14.05;;;;;;;15.27;100;94437.25;;;;
2020/09/23 01:46:18;;;;;;;15.7;14.05;;;;;;;15.27;100;94437.25;;;;
2020/09/23 01:47:18;;;;;;;15.7;14.05;;;;;;;15.27;100;94437.25;;;;
2020/09/23 01:48:19;;;;;;;15.7;14.05;;;;;;;15.27;100;94437.25;;;;
2020/09/23 01:49:19;;;;;;;15.7;14.05;;;;;;;15.27;100;94437.25;;;;
2020/09/23 01:50:20;;;;;;;15.7;14.05;;;;;;;15.27;100;94437.25;;;;
2020/09/23 01:51:20;;;;;;;15.7;14.05;;;;;;;15.27;100;94437.25;;;;
2020/09/23 01:52:21;;;;;;;15.95;14.2;;;;;;;15.15;100;94453.1;;;;
2020/09/23 01:53:21;;;;;;;15.95;14.2;;;;;;;15.15;100;94453.1;;;;
2020/09/23 01:54:22;;;;;;;15.95;14.2;;;;;;;15.15;100;94453.1;;;;
2020/09/23 01:55:23;;;;;;;15.95;14.2;;;;;;;15.15;100;94453.1;;;;
2020/09/23 01:56:23;;;;;;;15.95;14.2;;;;;;;15.15;100;94453.1;;;;
2020/09/23 01:57:24;;;;;;;15.95;14.2;;;;;;;15.15;100;94453.1;;;;
2020/09/23 01:58:24;;;;;;;15.95;14.2;;;;;;;15.15;100;94453.1;;;;
2020/09/23 01:59:25;;;;;;;15.95;14.2;;;;;;;15.15;100;94453.1;;;;
2020/09/23 02:00:25;;;;;;;15.95;14.2;;;;;;;15.15;100;94453.1;;;;
2020/09/23 02:01:26;;;;;;;15.95;14.2;;;;;;;15.15;100;94453.1;;;;
2020/09/23 02:02:26;;;;;;;15.95;14.2;;;;;;;15.15;100;94453.1;;;;
2020/09/23 02:03:27;;;;;;;15.05;13.15;;;;;;;15.15;100;94455.69;;;;
2020/09/23 02:04:27;;;;;;;15.05;13.15;;;;;;;15.15;100;94455.69;;;;
2020/09/23 02:05:28;;;;;;;15.05;13.15;;;;;;;15.15;100;94455.69;;;;
2020/09/23 02:06:28;;;;;;;15.05;13.15;;;;;;;15.15;100;94455.69;;;;
2020/09/23 02:07:28;;;;;;;15.05;13.15;;;;;;;15.15;100;94455.69;;;;
2020/09/23 02:08:29;;;;;;;15.05;13.15;;;;;;;15.15;100;94455.69;;;;
2020/09/23 02:09:29;;;;;;;15.05;13.15;;;;;;;15.15;100;94455.69;;;;
2020/09/23 02:10:30;;;;;;;15.05;13.15;;;;;;;15.15;100;94455.69;;;;
2020/09/23 02:11:30;;;;;;;15.05;13.15;;;;;;;15.15;100;94455.69;;;;
2020/09/23 02:12:31;;;;;;;15.05;13.15;;;;;;;15.15;100;94455.69;;;;
2020/09/23 02:13:31;;;;;;;14.9;12.5;;;;;;;15.12;100;94461.71;;;;
2020/09/23 02:14:32;;;;;;;14.9;12.5;;;;;;;15.12;100;94461.71;;;;
2020/09/23 02:15:32;;;;;;;14.9;12.5;;;;;;;15.12;100;94461.71;;;;
2020/09/23 02:16:33;;;;;;;14.9;12.5;;;;;;;15.12;100;94461.71;;;;
2020/09/23 02:17:33;;;;;;;14.9;12.5;;;;;;;15.12;100;94461.71;;;;
2020/09/23 02:18:34;;;;;;;14.9;12.5;;;;;;;15.12;100;94461.71;;;;
2020/09/23 02:19:34;;;;;;;14.9;12.5;;;;;;;15.12;100;94461.71;;;;
2020/09/23 02:20:35;;;;;;;14.9;12.5;;;;;;;15.12;100;94461.71;;;;
2020/09/23 02:21:35;;;;;;;14.9;12.5;;;;;;;15.12;100;94461.71;;;;
2020/09/23 02:22:36;;;;;;;14.9;12.5;;;;;;;15.12;100;94461.71;;;;
2020/09/23 02:23:36;;;;;;;14.9;12.5;;;;;;;15.12;100;94461.71;;;;
2020/09/23 02:24:37;;;;;;;13.55;11.95;;;;;;;15.18;100;94470.64;;;;
2020/09/23 02:25:37;;;;;;;13.55;11.95;;;;;;;15.18;100;94470.64;;;;
2020/09/23 02:26:38;;;;;;;13.55;11.95;;;;;;;15.18;100;94470.64;;;;
2020/09/23 02:27:38;;;;;;;13.55;11.95;;;;;;;15.18;100;94470.64;;;;
2020/09/23 02:28:39;;;;;;;13.55;11.95;;;;;;;15.18;100;94470.64;;;;
2020/09/23 02:29:39;;;;;;;13.55;11.95;;;;;;;15.18;100;94470.64;;;;
2020/09/23 02:30:40;;;;;;;13.55;11.95;;;;;;;15.18;100;94470.64;;;;
2020/09/23 02:31:40;;;;;;;13.55;11.95;;;;;;;15.18;100;94470.64;;;;
2020/09/23 02:32:41;;;;;;;13.55;11.95;;;;;;;15.18;100;94470.64;;;;
2020/09/23 02:33:41;;;;;;;13.55;11.95;;;;;;;15.18;100;94470.64;;;;
2020/09/23 02:34:42;;;;;;;13.55;11.95;;;;;;;15.18;100;94470.64;;;;
2020/09/23 02:35:42;;;;;;;13.85;12.1;;;;;;;15.18;100;94465.2;;;;
2020/09/23 02:36:43;;;;;;;13.85;12.1;;;;;;;15.18;100;94465.2;;;;
2020/09/23 02:37:43;;;;;;;13.85;12.1;;;;;;;15.18;100;94465.2;;;;
2020/09/23 02:38:46;;;;;;;13.85;12.1;;;;;;;15.18;100;94465.2;;;;
2020/09/23 02:39:47;;;;;;;13.85;12.1;;;;;;;15.18;100;94465.2;;;;
2020/09/23 02:40:47;;;;;;;13.85;12.1;;;;;;;15.18;100;94465.2;;;;
2020/09/23 02:41:48;;;;;;;13.85;12.1;;;;;;;15.18;100;94465.2;;;;
2020/09/23 02:42:48;;;;;;;13.85;12.1;;;;;;;15.18;100;94465.2;;;;
2020/09/23 02:43:49;;;;;;;13.85;12.1;;;;;;;15.18;100;94465.2;;;;
2020/09/23 02:44:49;;;;;;;13.85;12.1;;;;;;;15.18;100;94465.2;;;;
2020/09/23 02:45:50;;;;;;;13.8;12.4;;;;;;;15.25;100;94475.75;;;;
2020/09/23 02:46:51;;;;;;;13.8;12.4;;;;;;;15.25;100;94475.75;;;;
2020/09/23 02:47:51;;;;;;;13.8;12.4;;;;;;;15.25;100;94475.75;;;;
2020/09/23 02:48:52;;;;;;;13.8;12.4;;;;;;;15.25;100;94475.75;;;;
2020/09/23 02:49:52;;;;;;;13.8;12.4;;;;;;;15.25;100;94475.75;;;;
2020/09/23 02:50:52;;;;;;;13.8;12.4;;;;;;;15.25;100;94475.75;;;;
2020/09/23 02:51:53;;;;;;;13.8;12.4;;;;;;;15.25;100;94475.75;;;;
2020/09/23 02:52:54;;;;;;;13.8;12.4;;;;;;;15.25;100;94475.75;;;;
2020/09/23 02:53:54;;;;;;;13.8;12.4;;;;;;;15.25;100;94475.75;;;;
2020/09/23 02:54:55;;;;;;;13.8;12.4;;;;;;;15.25;100;94475.75;;;;
2020/09/23 02:55:56;;;;;;;13.8;12.4;;;;;;;15.25;100;94475.75;;;;
2020/09/23 02:56:56;;;;;;;13.15;11.75;;;;;;;15.24;100;94484.86;;;;
2020/09/23 02:57:57;;;;;;;13.15;11.75;;;;;;;15.24;100;94484.86;;;;
2020/09/23 02:58:57;;;;;;;13.15;11.75;;;;;;;15.24;100;94484.86;;;;
2020/09/23 02:59:58;;;;;;;13.15;11.75;;;;;;;15.24;100;94484.86;;;;
2020/09/23 03:00:58;;;;;;;13.15;11.75;;;;;;;15.24;100;94484.86;;;;
2020/09/23 03:01:59;;;;;;;13.15;11.75;;;;;;;15.24;100;94484.86;;;;
2020/09/23 03:02:59;;;;;;;13.15;11.75;;;;;;;15.24;100;94484.86;;;;
2020/09/23 03:04:00;;;;;;;13.15;11.75;;;;;;;15.24;100;94484.86;;;;
2020/09/23 03:05:01;;;;;;;13.15;11.75;;;;;;;15.24;100;94484.86;;;;
2020/09/23 03:06:02;;;;;;;13.15;11.75;;;;;;;15.24;100;94484.86;;;;
2020/09/23 03:07:02;;;;;;;11.25;10.1;;;;;;;15.32;100;94476.23;;;;
2020/09/23 03:08:03;;;;;;;11.25;10.1;;;;;;;15.32;100;94476.23;;;;
2020/09/23 03:09:03;;;;;;;11.25;10.1;;;;;;;15.32;100;94476.23;;;;
2020/09/23 03:10:04;;;;;;;11.25;10.1;;;;;;;15.32;100;94476.23;;;;
2020/09/23 03:11:05;;;;;;;11.25;10.1;;;;;;;15.32;100;94476.23;;;;
2020/09/23 03:12:05;;;;;;;11.25;10.1;;;;;;;15.32;100;94476.23;;;;
2020/09/23 03:13:06;;;;;;;11.25;10.1;;;;;;;15.32;100;94476.23;;;;
2020/09/23 03:14:06;;;;;;;11.25;10.1;;;;;;;15.32;100;94476.23;;;;
2020/09/23 03:15:07;;;;;;;11.25;10.1;;;;;;;15.32;100;94476.23;;;;
2020/09/23 03:16:08;;;;;;;11.25;10.1;;;;;;;15.32;100;94476.23;;;;
2020/09/23 03:17:09;;;;;;;11.25;10.1;;;;;;;15.32;100;94476.23;;;;
2020/09/23 03:18:09;;;;;;;11.45;10.1;;;;;;;15.32;100;94482.48;;;;
2020/09/23 03:19:10;;;;;;;11.45;10.1;;;;;;;15.32;100;94482.48;;;;
2020/09/23 03:20:10;;;;;;;11.45;10.1;;;;;;;15.32;100;94482.48;;;;
2020/09/23 03:21:11;;;;;;;11.45;10.1;;;;;;;15.32;100;94482.48;;;;
2020/09/23 03:22:11;;;;;;;11.45;10.1;;;;;;;15.32;100;94482.48;;;;
2020/09/23 03:23:12;;;;;;;11.45;10.1;;;;;;;15.32;100;94482.48;;;;
2020/09/23 03:24:12;;;;;;;11.45;10.1;;;;;;;15.32;100;94482.48;;;;
2020/09/23 03:25:13;;;;;;;11.45;10.1;;;;;;;15.32;100;94482.48;;;;
2020/09/23 03:26:13;;;;;;;11.45;10.1;;;;;;;15.32;100;94482.48;;;;
2020/09/23 03:27:14;;;;;;;11.45;10.1;;;;;;;15.32;100;94482.48;;;;
2020/09/23 03:28:14;;;;;;;10.65;8.3;;;;;;;15.38;100;94479.97;;;;
2020/09/23 03:29:15;;;;;;;10.65;8.3;;;;;;;15.38;100;94479.97;;;;
2020/09/23 03:30:15;;;;;;;10.65;8.3;;;;;;;15.38;100;94479.97;;;;
2020/09/23 03:31:20;;;;;;;10.65;8.3;;;;;;;15.38;100;94479.97;;;;
2020/09/23 03:32:26;;;;;;;10.65;8.3;;;;;;;15.38;100;94479.97;;;;
2020/09/23 03:33:27;;;;;;;10.65;8.3;;;;;;;15.38;100;94479.97;;;;
2020/09/23 03:34:27;;;;;;;10.65;8.3;;;;;;;15.38;100;94479.97;;;;
2020/09/23 03:35:28;;;;;;;10.65;8.3;;;;;;;15.38;100;94479.97;;;;
2020/09/23 03:36:28;;;;;;;10.65;8.3;;;;;;;15.38;100;94479.97;;;;
2020/09/23 03:37:29;;;;;;;10.65;8.3;;;;;;;15.38;100;94479.97;;;;
2020/09/23 03:38:29;;;;;;;10.65;8.3;;;;;;;15.38;100;94479.97;;;;
2020/09/23 03:39:29;;;;;;;12.1;8.900001;;;;;;;15.33;100;94474.58;;;;
2020/09/23 03:40:30;;;;;;;12.1;8.900001;;;;;;;15.33;100;94474.58;;;;
2020/09/23 03:41:30;;;;;;;12.1;8.900001;;;;;;;15.33;100;94474.58;;;;
2020/09/23 03:42:31;;;;;;;12.1;8.900001;;;;;;;15.33;100;94474.58;;;;
2020/09/23 03:43:32;;;;;;;12.1;8.900001;;;;;;;15.33;100;94474.58;;;;
2020/09/23 03:44:35;;;;;;;12.1;8.900001;;;;;;;15.33;100;94474.58;;;;
2020/09/23 03:45:37;;;;;;;12.1;8.900001;;;;;;;15.33;100;94474.58;;;;
2020/09/23 03:46:39;;;;;;;12.1;8.900001;;;;;;;15.33;100;94474.58;;;;
2020/09/23 03:47:40;;;;;;;12.1;8.900001;;;;;;;15.33;100;94474.58;;;;
2020/09/23 03:48:42;;;;;;;12.1;8.900001;;;;;;;15.33;100;94474.58;;;;
2020/09/23 03:49:46;;;;;;;9.450001;7.4;;;;;;;15.31;100;94483.15;;;;
2020/09/23 03:50:46;;;;;;;9.450001;7.4;;;;;;;15.31;100;94483.15;;;;
2020/09/23 03:51:47;;;;;;;9.450001;7.4;;;;;;;15.31;100;94483.15;;;;
2020/09/23 03:52:48;;;;;;;9.450001;7.4;;;;;;;15.31;100;94483.15;;;;
2020/09/23 03:53:50;;;;;;;9.450001;7.4;;;;;;;15.31;100;94483.15;;;;
2020/09/23 03:54:52;;;;;;;9.450001;7.4;;;;;;;15.31;100;94483.15;;;;
2020/09/23 03:55:53;;;;;;;9.450001;7.4;;;;;;;15.31;100;94483.15;;;;
2020/09/23 03:56:53;;;;;;;9.450001;7.4;;;;;;;15.31;100;94483.15;;;;
2020/09/23 03:57:54;;;;;;;9.450001;7.4;;;;;;;15.31;100;94483.15;;;;
2020/09/23 03:58:54;;;;;;;9.450001;7.4;;;;;;;15.31;100;94483.15;;;;
2020/09/23 04:00:13;;;;;;;6.849999;6;;;;;;;15.22;100;94488.4;;;;
2020/09/23 04:01:20;;;;;;;6.849999;6;;;;;;;15.22;100;94488.4;;;;
2020/09/23 04:02:25;;;;;;;6.849999;6;;;;;;;15.22;100;94488.4;;;;
2020/09/23 04:03:26;;;;;;;6.849999;6;;;;;;;15.22;100;94488.4;;;;
2020/09/23 04:04:42;;;;;;;6.849999;6;;;;;;;15.22;100;94488.4;;;;
2020/09/23 04:05:43;;;;;;;6.849999;6;;;;;;;15.22;100;94488.4;;;;
2020/09/23 04:06:43;;;;;;;6.849999;6;;;;;;;15.22;100;94488.4;;;;
2020/09/23 04:07:44;;;;;;;6.849999;6;;;;;;;15.22;100;94488.4;;;;
2020/09/23 04:08:45;;;;;;;6.849999;6;;;;;;;15.22;100;94488.4;;;;
2020/09/23 04:09:58;;;;;;;6.849999;6;;;;;;;15.22;100;94488.4;;;;
2020/09/23 04:11:09;;;;;;;7.250001;5.4;;;;;;;15.16;100;94494.17;;;;
2020/09/23 04:12:10;;;;;;;7.250001;5.4;;;;;;;15.16;100;94494.17;;;;
2020/09/23 04:13:10;;;;;;;7.250001;5.4;;;;;;;15.16;100;94494.17;;;;
2020/09/23 04:14:12;;;;;;;7.250001;5.4;;;;;;;15.16;100;94494.17;;;;
2020/09/23 04:15:16;;;;;;;7.250001;5.4;;;;;;;15.16;100;94494.17;;;;
2020/09/23 04:16:19;;;;;;;7.250001;5.4;;;;;;;15.16;100;94494.17;;;;
2020/09/23 04:17:20;;;;;;;7.250001;5.4;;;;;;;15.16;100;94494.17;;;;
2020/09/23 04:18:20;;;;;;;7.250001;5.4;;;;;;;15.16;100;94494.17;;;;
2020/09/23 04:19:21;;;;;;;7.250001;5.4;;;;;;;15.16;100;94494.17;;;;
2020/09/23 04:20:31;;;;;;;7.250001;5.4;;;;;;;15.16;100;94494.17;;;;
2020/09/23 04:21:32;;;;;;;7.8;5.4;;;;;;;15.03;100;94484.34;;;;
2020/09/23 04:22:33;;;;;;;7.8;5.4;;;;;;;15.03;100;94484.34;;;;
2020/09/23 04:23:33;;;;;;;7.8;5.4;;;;;;;15.03;100;94484.34;;;;
2020/09/23 04:24:33;;;;;;;7.8;5.4;;;;;;;15.03;100;94484.34;;;;
2020/09/23 04:25:35;;;;;;;7.8;5.4;;;;;;;15.03;100;94484.34;;;;
2020/09/23 04:26:37;;;;;;;7.8;5.4;;;;;;;15.03;100;94484.34;;;;
2020/09/23 04:27:38;;;;;;;7.8;5.4;;;;;;;15.03;100;94484.34;;;;
2020/09/23 04:28:39;;;;;;;7.8;5.4;;;;;;;15.03;100;94484.34;;;;
2020/09/23 04:29:39;;;;;;;7.8;5.4;;;;;;;15.03;100;94484.34;;;;
2020/09/23 04:30:42;;;;;;;7.8;5.4;;;;;;;15.03;100;94484.34;;;;
2020/09/23 04:31:44;;;;;;;7.8;5.4;;;;;;;15.03;100;94484.34;;;;
2020/09/23 04:32:45;;;;;;;6.55;5.600001;;;;;;;14.96;100;94472.03;;;;
2020/09/23 04:33:46;;;;;;;6.55;5.600001;;;;;;;14.96;100;94472.03;;;;
2020/09/23 04:34:46;;;;;;;6.55;5.600001;;;;;;;14.96;100;94472.03;;;;
2020/09/23 04:35:48;;;;;;;6.55;5.600001;;;;;;;14.96;100;94472.03;;;;
2020/09/23 04:36:51;;;;;;;6.55;5.600001;;;;;;;14.96;100;94472.03;;;;
2020/09/23 04:37:53;;;;;;;6.55;5.600001;;;;;;;14.96;100;94472.03;;;;
2020/09/23 04:38:54;;;;;;;6.55;5.600001;;;;;;;14.96;100;94472.03;;;;
2020/09/23 04:39:59;;;;;;;6.55;5.600001;;;;;;;14.96;100;94472.03;;;;
2020/09/23 04:41:04;;;;;;;6.55;5.600001;;;;;;;14.96;100;94472.03;;;;
2020/09/23 04:42:06;;;;;;;6.55;5.600001;;;;;;;14.96;100;94472.03;;;;
2020/09/23 04:43:06;;;;;;;7.500001;6.299999;;;;;;;14.87;100;94468.69;;;;
2020/09/23 04:44:09;;;;;;;7.500001;6.299999;;;;;;;14.87;100;94468.69;;;;
2020/09/23 04:45:09;;;;;;;7.500001;6.299999;;;;;;;14.87;100;94468.69;;;;
2020/09/23 04:46:13;;;;;;;7.500001;6.299999;;;;;;;14.87;100;94468.69;;;;
2020/09/23 04:47:13;;;;;;;7.500001;6.299999;;;;;;;14.87;100;94468.69;;;;
2020/09/23 04:48:15;;;;;;;7.500001;6.299999;;;;;;;14.87;100;94468.69;;;;
2020/09/23 04:49:21;;;;;;;7.500001;6.299999;;;;;;;14.87;100;94468.69;;;;
2020/09/23 04:50:25;;;;;;;7.500001;6.299999;;;;;;;14.87;100;94468.69;;;;
2020/09/23 04:51:27;;;;;;;7.500001;6.299999;;;;;;;14.87;100;94468.69;;;;
2020/09/23 04:52:27;;;;;;;7.500001;6.299999;;;;;;;14.87;100;94468.69;;;;
2020/09/23 04:53:34;;;;;;;8.199999;6.3;;;;;;;14.89;100;94469.35;;;;
2020/09/23 04:54:39;;;;;;;8.199999;6.3;;;;;;;14.89;100;94469.35;;;;
2020/09/23 04:55:40;;;;;;;8.199999;6.3;;;;;;;14.89;100;94469.35;;;;
2020/09/23 04:56:42;;;;;;;8.199999;6.3;;;;;;;14.89;100;94469.35;;;;
2020/09/23 04:57:42;;;;;;;8.199999;6.3;;;;;;;14.89;100;94469.35;;;;
2020/09/23 04:58:43;;;;;;;8.199999;6.3;;;;;;;14.89;100;94469.35;;;;
2020/09/23 04:59:44;;;;;;;8.199999;6.3;;;;;;;14.89;100;94469.35;;;;
2020/09/23 05:00:44;;;;;;;8.199999;6.3;;;;;;;14.89;100;94469.35;;;;
2020/09/23 05:01:45;;;;;;;8.199999;6.3;;;;;;;14.89;100;94469.35;;;;
2020/09/23 05:02:50;;;;;;;8.199999;6.3;;;;;;;14.89;100;94469.35;;;;
2020/09/23 05:03:54;;;;;;;8.199999;6.3;;;;;;;14.89;100;94469.35;;;;
2020/09/23 05:04:55;;;;;;;6.750001;6.050001;;;;;;;14.86;100;94498.85;;;;
2020/09/23 05:06:05;;;;;;;6.750001;6.050001;;;;;;;14.86;100;94498.85;;;;
2020/09/23 05:07:06;;;;;;;6.750001;6.050001;;;;;;;14.86;100;94498.85;;;;
2020/09/23 05:08:06;;;;;;;6.750001;6.050001;;;;;;;14.86;100;94498.85;;;;
2020/09/23 05:09:13;;;;;;;6.750001;6.050001;;;;;;;14.86;100;94498.85;;;;
2020/09/23 05:10:18;;;;;;;6.750001;6.050001;;;;;;;14.86;100;94498.85;;;;
2020/09/23 05:11:26;;;;;;;6.750001;6.050001;;;;;;;14.86;100;94498.85;;;;
2020/09/23 05:12:32;;;;;;;6.750001;6.050001;;;;;;;14.86;100;94498.85;;;;
2020/09/23 05:13:32;;;;;;;6.750001;6.050001;;;;;;;14.86;100;94498.85;;;;
2020/09/23 05:14:33;;;;;;;6.750001;6.050001;;;;;;;14.86;100;94498.85;;;;
2020/09/23 05:15:33;;;;;;;7.6;6.2;;;;;;;14.9;100;94515.81;;;;
2020/09/23 05:16:34;;;;;;;7.6;6.2;;;;;;;14.9;100;94515.81;;;;
2020/09/23 05:17:35;;;;;;;7.6;6.2;;;;;;;14.9;100;94515.81;;;;
2020/09/23 05:18:36;;;;;;;7.6;6.2;;;;;;;14.9;100;94515.81;;;;
2020/09/23 05:19:36;;;;;;;7.6;6.2;;;;;;;14.9;100;94515.81;;;;
2020/09/23 05:20:37;;;;;;;7.6;6.2;;;;;;;14.9;100;94515.81;;;;
2020/09/23 05:21:37;;;;;;;7.6;6.2;;;;;;;14.9;100;94515.81;;;;
2020/09/23 05:22:45;;;;;;;7.6;6.2;;;;;;;14.9;100;94515.81;;;;
2020/09/23 05:23:46;;;;;;;7.6;6.2;;;;;;;14.9;100;94515.81;;;;
2020/09/23 05:24:47;;;;;;;7.6;6.2;;;;;;;14.9;100;94515.81;;;;
2020/09/23 05:25:54;;;;;;;7.3;5.95;;;;;;;14.87;100;94518.16;;;;
2020/09/23 05:26:55;;;;;;;7.3;5.95;;;;;;;14.87;100;94518.16;;;;
2020/09/23 05:27:57;;;;;;;7.3;5.95;;;;;;;14.87;100;94518.16;;;;
2020/09/23 05:28:57;;;;;;;7.3;5.95;;;;;;;14.87;100;94518.16;;;;
2020/09/23 05:29:58;;;;;;;7.3;5.95;;;;;;;14.87;100;94518.16;;;;
2020/09/23 05:30:58;;;;;;;7.3;5.95;;;;;;;14.87;100;94518.16;;;;
2020/09/23 05:32:00;;;;;;;7.3;5.95;;;;;;;14.87;100;94518.16;;;;
2020/09/23 05:33:01;;;;;;;7.3;5.95;;;;;;;14.87;100;94518.16;;;;
2020/09/23 05:34:02;;;;;;;7.3;5.95;;;;;;;14.87;100;94518.16;;;;
2020/09/23 05:35:04;;;;;;;7.3;5.95;;;;;;;14.87;100;94518.16;;;;
2020/09/23 05:36:05;;;;;;;7.3;5.95;;;;;;;14.87;100;94518.16;;;;
2020/09/23 05:37:24;;;;;;;7.45;6.65;;;;;;;14.88;100;94513.79;;;;
2020/09/23 05:38:25;;;;;;;7.45;6.65;;;;;;;14.88;100;94513.79;;;;
2020/09/23 05:39:26;;;;;;;7.45;6.65;;;;;;;14.88;100;94513.79;;;;
2020/09/23 05:40:27;;;;;;;7.45;6.65;;;;;;;14.88;100;94513.79;;;;
2020/09/23 05:41:27;;;;;;;7.45;6.65;;;;;;;14.88;100;94513.79;;;;
2020/09/23 05:42:28;;;;;;;7.45;6.65;;;;;;;14.88;100;94513.79;;;;
2020/09/23 05:43:29;;;;;;;7.45;6.65;;;;;;;14.88;100;94513.79;;;;
2020/09/23 05:44:30;;;;;;;7.45;6.65;;;;;;;14.88;100;94513.79;;;;
2020/09/23 05:45:30;;;;;;;7.45;6.65;;;;;;;14.88;100;94513.79;;;;
2020/09/23 05:46:31;;;;;;;7.45;6.65;;;;;;;14.88;100;94513.79;;;;
2020/09/23 05:47:32;;;;;;;8.799999;6.799999;;;;;;;14.88;100;94523.47;;;;
2020/09/23 05:48:33;;;;;;;8.799999;6.799999;;;;;;;14.88;100;94523.47;;;;
2020/09/23 05:49:33;;;;;;;8.799999;6.799999;;;;;;;14.88;100;94523.47;;;;
2020/09/23 05:50:34;;;;;;;8.799999;6.799999;;;;;;;14.88;100;94523.47;;;;
2020/09/23 05:51:34;;;;;;;8.799999;6.799999;;;;;;;14.88;100;94523.47;;;;
2020/09/23 05:52:35;;;;;;;8.799999;6.799999;;;;;;;14.88;100;94523.47;;;;
2020/09/23 05:53:35;;;;;;;8.799999;6.799999;;;;;;;14.88;100;94523.47;;;;
2020/09/23 05:54:35;;;;;;;8.799999;6.799999;;;;;;;14.88;100;94523.47;;;;
2020/09/23 05:55:36;;;;;;;8.799999;6.799999;;;;;;;14.88;100;94523.47;;;;
2020/09/23 05:56:36;;;;;;;8.799999;6.799999;;;;;;;14.88;100;94523.47;;;;
2020/09/23 05:57:37;;;;;;;8.950001;7.350001;;;;;;;14.99;100;94529.49;;;;
2020/09/23 05:58:37;;;;;;;8.950001;7.350001;;;;;;;14.99;100;94529.49;;;;
2020/09/23 05:59:38;;;;;;;8.950001;7.350001;;;;;;;14.99;100;94529.49;;;;
2020/09/23 06:00:38;;;;;;;8.950001;7.350001;;;;;;;14.99;100;94529.49;;;;
2020/09/23 06:01:39;;;;;;;8.950001;7.350001;;;;;;;14.99;100;94529.49;;;;
2020/09/23 06:02:39;;;;;;;8.950001;7.350001;;;;;;;14.99;100;94529.49;;;;
2020/09/23 06:03:40;;;;;;;8.950001;7.350001;;;;;;;14.99;100;94529.49;;;;